sensor_id;sensor_type;location;lat;lon;timestamp;P1;durP1;ratioP1;P2;durP2;ratioP2
42244;SDS011;27912;51.828;5.688;2024-02-15T00:00:58;37.80;;;25.05;;
42244;SDS011;27912;51.828;5.688;2024-02-15T00:03:25;35.83;;;26.80;;
42244;SDS011;27912;51.828;5.688;2024-02-15T00:05:50;39.78;;;27.38;;
42244;SDS011;27912;51.828;5.688;2024-02-15T00:08:16;36.10;;;24.80;;
42244;SDS011;27912;51.828;5.688;2024-02-15T00:10:42;36.33;;;25.58;;
42244;SDS011;27912;51.828;5.688;2024-02-15T00:13:11;32.78;;;24.67;;
42244;SDS011;27912;51.828;5.688;2024-02-15T00:15:37;35.17;;;26.02;;
42244;SDS011;27912;51.828;5.688;2024-02-15T00:18:03;35.55;;;25.67;;
42244;SDS011;27912;51.828;5.688;2024-02-15T00:20:29;36.13;;;25.58;;
42244;SDS011;27912;51.828;5.688;2024-02-15T00:22:54;37.90;;;25.73;;
42244;SDS011;27912;51.828;5.688;2024-02-15T00:25:21;32.42;;;23.35;;
42244;SDS011;27912;51.828;5.688;2024-02-15T00:27:47;33.58;;;23.55;;
42244;SDS011;27912;51.828;5.688;2024-02-15T00:30:12;36.55;;;25.45;;
42244;SDS011;27912;51.828;5.688;2024-02-15T00:32:38;34.25;;;23.75;;
42244;SDS011;27912;51.828;5.688;2024-02-15T00:35:04;32.15;;;22.27;;
42244;SDS011;27912;51.828;5.688;2024-02-15T00:37:34;30.40;;;21.38;;
42244;SDS011;27912;51.828;5.688;2024-02-15T00:40:00;29.75;;;20.75;;
42244;SDS011;27912;51.828;5.688;2024-02-15T00:42:28;29.02;;;19.40;;
42244;SDS011;27912;51.828;5.688;2024-02-15T00:44:56;30.65;;;20.15;;
42244;SDS011;27912;51.828;5.688;2024-02-15T00:47:22;29.33;;;19.27;;
42244;SDS011;27912;51.828;5.688;2024-02-15T00:49:48;26.73;;;18.42;;
42244;SDS011;27912;51.828;5.688;2024-02-15T00:52:15;26.80;;;18.73;;
42244;SDS011;27912;51.828;5.688;2024-02-15T00:54:42;24.73;;;17.23;;
42244;SDS011;27912;51.828;5.688;2024-02-15T00:57:08;28.90;;;16.92;;
42244;SDS011;27912;51.828;5.688;2024-02-15T00:59:33;21.83;;;16.63;;
42244;SDS011;27912;51.828;5.688;2024-02-15T01:02:02;21.42;;;15.68;;
42244;SDS011;27912;51.828;5.688;2024-02-15T01:04:28;28.85;;;17.15;;
42244;SDS011;27912;51.828;5.688;2024-02-15T01:06:54;27.10;;;16.90;;
42244;SDS011;27912;51.828;5.688;2024-02-15T01:09:21;23.23;;;16.88;;
42244;SDS011;27912;51.828;5.688;2024-02-15T01:11:47;25.95;;;16.30;;
42244;SDS011;27912;51.828;5.688;2024-02-15T01:14:13;25.92;;;15.52;;
42244;SDS011;27912;51.828;5.688;2024-02-15T01:16:40;25.13;;;16.63;;
42244;SDS011;27912;51.828;5.688;2024-02-15T01:19:09;26.33;;;16.63;;
42244;SDS011;27912;51.828;5.688;2024-02-15T01:21:35;25.88;;;16.50;;
42244;SDS011;27912;51.828;5.688;2024-02-15T01:24:01;26.95;;;16.85;;
42244;SDS011;27912;51.828;5.688;2024-02-15T01:26:28;25.70;;;16.27;;
42244;SDS011;27912;51.828;5.688;2024-02-15T01:28:57;27.80;;;17.40;;
42244;SDS011;27912;51.828;5.688;2024-02-15T01:31:22;29.63;;;17.30;;
42244;SDS011;27912;51.828;5.688;2024-02-15T01:33:48;24.65;;;16.23;;
42244;SDS011;27912;51.828;5.688;2024-02-15T01:36:14;27.40;;;15.68;;
42244;SDS011;27912;51.828;5.688;2024-02-15T01:38:41;26.52;;;17.17;;
42244;SDS011;27912;51.828;5.688;2024-02-15T01:41:07;28.98;;;15.80;;
42244;SDS011;27912;51.828;5.688;2024-02-15T01:43:33;29.30;;;16.15;;
42244;SDS011;27912;51.828;5.688;2024-02-15T01:45:59;31.50;;;17.33;;
42244;SDS011;27912;51.828;5.688;2024-02-15T01:48:28;21.50;;;15.32;;
42244;SDS011;27912;51.828;5.688;2024-02-15T01:50:55;27.08;;;17.05;;
42244;SDS011;27912;51.828;5.688;2024-02-15T01:53:23;23.35;;;15.02;;
42244;SDS011;27912;51.828;5.688;2024-02-15T01:55:49;22.13;;;14.80;;
42244;SDS011;27912;51.828;5.688;2024-02-15T01:58:17;25.50;;;14.73;;
42244;SDS011;27912;51.828;5.688;2024-02-15T02:00:43;21.73;;;14.15;;
42244;SDS011;27912;51.828;5.688;2024-02-15T02:03:08;20.08;;;13.32;;
42244;SDS011;27912;51.828;5.688;2024-02-15T02:05:38;21.60;;;13.38;;
42244;SDS011;27912;51.828;5.688;2024-02-15T02:08:03;24.02;;;13.60;;
42244;SDS011;27912;51.828;5.688;2024-02-15T02:10:34;25.35;;;13.13;;
42244;SDS011;27912;51.828;5.688;2024-02-15T02:13:03;24.88;;;13.23;;
42244;SDS011;27912;51.828;5.688;2024-02-15T02:15:28;24.63;;;13.45;;
42244;SDS011;27912;51.828;5.688;2024-02-15T02:17:56;22.20;;;13.05;;
42244;SDS011;27912;51.828;5.688;2024-02-15T02:20:24;19.60;;;12.10;;
42244;SDS011;27912;51.828;5.688;2024-02-15T02:22:50;24.40;;;12.55;;
42244;SDS011;27912;51.828;5.688;2024-02-15T02:25:22;17.47;;;11.57;;
42244;SDS011;27912;51.828;5.688;2024-02-15T02:27:51;20.75;;;11.18;;
42244;SDS011;27912;51.828;5.688;2024-02-15T02:30:17;22.35;;;10.73;;
42244;SDS011;27912;51.828;5.688;2024-02-15T02:32:44;24.20;;;11.32;;
42244;SDS011;27912;51.828;5.688;2024-02-15T02:35:11;21.50;;;10.40;;
42244;SDS011;27912;51.828;5.688;2024-02-15T02:37:38;14.88;;;9.88;;
42244;SDS011;27912;51.828;5.688;2024-02-15T02:40:08;25.08;;;9.98;;
42244;SDS011;27912;51.828;5.688;2024-02-15T02:42:56;17.38;;;9.50;;
42244;SDS011;27912;51.828;5.688;2024-02-15T02:45:21;17.92;;;9.30;;
42244;SDS011;27912;51.828;5.688;2024-02-15T02:47:48;24.48;;;10.07;;
42244;SDS011;27912;51.828;5.688;2024-02-15T02:50:14;19.52;;;9.00;;
42244;SDS011;27912;51.828;5.688;2024-02-15T02:52:40;16.90;;;9.20;;
42244;SDS011;27912;51.828;5.688;2024-02-15T02:55:06;16.25;;;8.43;;
42244;SDS011;27912;51.828;5.688;2024-02-15T02:57:33;20.70;;;9.82;;
42244;SDS011;27912;51.828;5.688;2024-02-15T03:00:06;18.98;;;9.98;;
42244;SDS011;27912;51.828;5.688;2024-02-15T03:02:36;18.55;;;9.77;;
42244;SDS011;27912;51.828;5.688;2024-02-15T03:05:03;25.15;;;9.60;;
42244;SDS011;27912;51.828;5.688;2024-02-15T03:07:32;21.33;;;10.18;;
42244;SDS011;27912;51.828;5.688;2024-02-15T03:09:58;22.55;;;10.77;;
42244;SDS011;27912;51.828;5.688;2024-02-15T03:12:24;15.98;;;9.27;;
42244;SDS011;27912;51.828;5.688;2024-02-15T03:14:51;22.75;;;10.40;;
42244;SDS011;27912;51.828;5.688;2024-02-15T03:17:17;18.98;;;10.05;;
42244;SDS011;27912;51.828;5.688;2024-02-15T03:19:43;20.90;;;9.70;;
42244;SDS011;27912;51.828;5.688;2024-02-15T03:22:08;21.38;;;8.77;;
42244;SDS011;27912;51.828;5.688;2024-02-15T03:24:34;23.45;;;10.48;;
42244;SDS011;27912;51.828;5.688;2024-02-15T03:27:00;17.40;;;9.50;;
42244;SDS011;27912;51.828;5.688;2024-02-15T03:29:26;22.40;;;10.27;;
42244;SDS011;27912;51.828;5.688;2024-02-15T03:31:51;18.83;;;9.80;;
42244;SDS011;27912;51.828;5.688;2024-02-15T03:34:18;17.15;;;8.60;;
42244;SDS011;27912;51.828;5.688;2024-02-15T03:36:46;22.23;;;8.82;;
42244;SDS011;27912;51.828;5.688;2024-02-15T03:39:16;21.30;;;9.10;;
42244;SDS011;27912;51.828;5.688;2024-02-15T03:41:42;18.00;;;8.05;;
42244;SDS011;27912;51.828;5.688;2024-02-15T03:44:10;19.58;;;8.10;;
42244;SDS011;27912;51.828;5.688;2024-02-15T03:46:39;17.63;;;7.97;;
42244;SDS011;27912;51.828;5.688;2024-02-15T03:49:05;19.50;;;8.55;;
42244;SDS011;27912;51.828;5.688;2024-02-15T03:51:32;20.55;;;7.30;;
42244;SDS011;27912;51.828;5.688;2024-02-15T03:53:59;18.75;;;7.93;;
42244;SDS011;27912;51.828;5.688;2024-02-15T03:56:24;13.68;;;6.90;;
42244;SDS011;27912;51.828;5.688;2024-02-15T03:58:50;16.77;;;7.65;;
42244;SDS011;27912;51.828;5.688;2024-02-15T04:01:16;17.25;;;7.80;;
42244;SDS011;27912;51.828;5.688;2024-02-15T04:03:42;23.98;;;7.57;;
42244;SDS011;27912;51.828;5.688;2024-02-15T04:06:07;18.17;;;6.75;;
42244;SDS011;27912;51.828;5.688;2024-02-15T04:08:34;13.82;;;6.85;;
42244;SDS011;27912;51.828;5.688;2024-02-15T04:11:03;13.77;;;6.20;;
42244;SDS011;27912;51.828;5.688;2024-02-15T04:13:31;15.32;;;6.35;;
42244;SDS011;27912;51.828;5.688;2024-02-15T04:15:57;16.88;;;6.18;;
42244;SDS011;27912;51.828;5.688;2024-02-15T04:18:23;18.55;;;6.32;;
42244;SDS011;27912;51.828;5.688;2024-02-15T04:20:48;12.18;;;5.55;;
42244;SDS011;27912;51.828;5.688;2024-02-15T04:23:14;14.35;;;5.97;;
42244;SDS011;27912;51.828;5.688;2024-02-15T04:25:40;14.60;;;6.32;;
42244;SDS011;27912;51.828;5.688;2024-02-15T04:28:06;16.23;;;5.40;;
42244;SDS011;27912;51.828;5.688;2024-02-15T04:30:33;16.45;;;5.68;;
42244;SDS011;27912;51.828;5.688;2024-02-15T04:33:00;11.77;;;5.20;;
42244;SDS011;27912;51.828;5.688;2024-02-15T04:35:25;15.38;;;5.35;;
42244;SDS011;27912;51.828;5.688;2024-02-15T04:37:51;13.85;;;5.43;;
42244;SDS011;27912;51.828;5.688;2024-02-15T04:40:18;14.30;;;5.30;;
42244;SDS011;27912;51.828;5.688;2024-02-15T04:42:44;18.45;;;5.93;;
42244;SDS011;27912;51.828;5.688;2024-02-15T04:45:12;13.93;;;5.35;;
42244;SDS011;27912;51.828;5.688;2024-02-15T04:47:40;13.52;;;5.57;;
42244;SDS011;27912;51.828;5.688;2024-02-15T04:50:10;18.92;;;6.43;;
42244;SDS011;27912;51.828;5.688;2024-02-15T04:52:36;12.68;;;5.13;;
42244;SDS011;27912;51.828;5.688;2024-02-15T04:55:02;17.05;;;6.15;;
42244;SDS011;27912;51.828;5.688;2024-02-15T04:57:30;11.30;;;4.72;;
42244;SDS011;27912;51.828;5.688;2024-02-15T04:59:56;14.38;;;5.40;;
42244;SDS011;27912;51.828;5.688;2024-02-15T05:02:21;15.25;;;4.97;;
42244;SDS011;27912;51.828;5.688;2024-02-15T05:04:49;15.52;;;5.00;;
42244;SDS011;27912;51.828;5.688;2024-02-15T05:07:20;16.70;;;5.53;;
42244;SDS011;27912;51.828;5.688;2024-02-15T05:09:47;12.68;;;5.05;;
42244;SDS011;27912;51.828;5.688;2024-02-15T05:12:23;11.68;;;4.88;;
42244;SDS011;27912;51.828;5.688;2024-02-15T05:14:49;12.05;;;5.13;;
42244;SDS011;27912;51.828;5.688;2024-02-15T05:17:15;12.70;;;4.78;;
42244;SDS011;27912;51.828;5.688;2024-02-15T05:19:41;12.25;;;4.95;;
42244;SDS011;27912;51.828;5.688;2024-02-15T05:22:07;13.77;;;4.90;;
42244;SDS011;27912;51.828;5.688;2024-02-15T05:24:33;13.73;;;5.13;;
42244;SDS011;27912;51.828;5.688;2024-02-15T05:26:59;15.90;;;5.05;;
42244;SDS011;27912;51.828;5.688;2024-02-15T05:29:26;14.85;;;5.45;;
42244;SDS011;27912;51.828;5.688;2024-02-15T05:31:53;16.00;;;5.05;;
42244;SDS011;27912;51.828;5.688;2024-02-15T05:34:19;11.05;;;4.47;;
42244;SDS011;27912;51.828;5.688;2024-02-15T05:36:45;10.93;;;4.80;;
42244;SDS011;27912;51.828;5.688;2024-02-15T05:39:13;11.88;;;4.70;;
42244;SDS011;27912;51.828;5.688;2024-02-15T05:41:39;12.85;;;4.47;;
42244;SDS011;27912;51.828;5.688;2024-02-15T05:44:05;13.30;;;4.57;;
42244;SDS011;27912;51.828;5.688;2024-02-15T05:46:34;14.55;;;4.50;;
42244;SDS011;27912;51.828;5.688;2024-02-15T05:49:02;12.95;;;4.68;;
42244;SDS011;27912;51.828;5.688;2024-02-15T05:51:29;18.02;;;4.68;;
42244;SDS011;27912;51.828;5.688;2024-02-15T05:53:56;11.93;;;3.80;;
42244;SDS011;27912;51.828;5.688;2024-02-15T05:56:24;12.68;;;3.90;;
42244;SDS011;27912;51.828;5.688;2024-02-15T05:58:51;13.10;;;4.00;;
42244;SDS011;27912;51.828;5.688;2024-02-15T06:01:17;11.10;;;4.00;;
42244;SDS011;27912;51.828;5.688;2024-02-15T06:03:43;14.55;;;4.57;;
42244;SDS011;27912;51.828;5.688;2024-02-15T06:06:09;14.20;;;4.53;;
42244;SDS011;27912;51.828;5.688;2024-02-15T06:08:39;18.33;;;5.28;;
42244;SDS011;27912;51.828;5.688;2024-02-15T06:11:04;16.20;;;4.78;;
42244;SDS011;27912;51.828;5.688;2024-02-15T06:13:30;9.05;;;3.80;;
42244;SDS011;27912;51.828;5.688;2024-02-15T06:15:56;12.30;;;4.53;;
42244;SDS011;27912;51.828;5.688;2024-02-15T06:18:26;11.40;;;4.65;;
42244;SDS011;27912;51.828;5.688;2024-02-15T06:20:57;10.38;;;4.57;;
42244;SDS011;27912;51.828;5.688;2024-02-15T06:23:24;10.75;;;4.32;;
42244;SDS011;27912;51.828;5.688;2024-02-15T06:25:51;15.45;;;4.22;;
42244;SDS011;27912;51.828;5.688;2024-02-15T06:28:18;7.35;;;3.60;;
42244;SDS011;27912;51.828;5.688;2024-02-15T06:31:02;17.08;;;4.85;;
42244;SDS011;27912;51.828;5.688;2024-02-15T06:33:47;13.98;;;4.82;;
42244;SDS011;27912;51.828;5.688;2024-02-15T06:36:30;11.52;;;4.10;;
42244;SDS011;27912;51.828;5.688;2024-02-15T06:39:15;12.50;;;4.22;;
42244;SDS011;27912;51.828;5.688;2024-02-15T06:41:59;12.00;;;4.63;;
42244;SDS011;27912;51.828;5.688;2024-02-15T06:44:26;9.40;;;4.15;;
42244;SDS011;27912;51.828;5.688;2024-02-15T06:46:52;15.82;;;4.28;;
42244;SDS011;27912;51.828;5.688;2024-02-15T06:49:17;10.88;;;3.83;;
42244;SDS011;27912;51.828;5.688;2024-02-15T06:51:43;10.57;;;3.83;;
42244;SDS011;27912;51.828;5.688;2024-02-15T06:54:12;10.25;;;3.65;;
42244;SDS011;27912;51.828;5.688;2024-02-15T06:56:37;11.50;;;3.75;;
42244;SDS011;27912;51.828;5.688;2024-02-15T06:59:04;13.07;;;4.07;;
42244;SDS011;27912;51.828;5.688;2024-02-15T07:01:33;10.45;;;3.92;;
42244;SDS011;27912;51.828;5.688;2024-02-15T07:03:59;12.40;;;4.28;;
42244;SDS011;27912;51.828;5.688;2024-02-15T07:06:25;13.63;;;3.88;;
42244;SDS011;27912;51.828;5.688;2024-02-15T07:08:52;9.93;;;4.47;;
42244;SDS011;27912;51.828;5.688;2024-02-15T07:11:20;16.05;;;4.03;;
42244;SDS011;27912;51.828;5.688;2024-02-15T07:13:46;10.95;;;4.50;;
42244;SDS011;27912;51.828;5.688;2024-02-15T07:16:12;13.35;;;4.13;;
42244;SDS011;27912;51.828;5.688;2024-02-15T07:18:40;8.95;;;3.85;;
42244;SDS011;27912;51.828;5.688;2024-02-15T07:21:06;9.43;;;3.67;;
42244;SDS011;27912;51.828;5.688;2024-02-15T07:23:36;8.73;;;4.70;;
42244;SDS011;27912;51.828;5.688;2024-02-15T07:26:02;10.98;;;4.88;;
42244;SDS011;27912;51.828;5.688;2024-02-15T07:28:28;11.15;;;4.95;;
42244;SDS011;27912;51.828;5.688;2024-02-15T07:30:56;14.82;;;4.82;;
42244;SDS011;27912;51.828;5.688;2024-02-15T07:33:21;11.52;;;4.50;;
42244;SDS011;27912;51.828;5.688;2024-02-15T07:35:48;9.63;;;4.93;;
42244;SDS011;27912;51.828;5.688;2024-02-15T07:38:18;8.00;;;4.00;;
42244;SDS011;27912;51.828;5.688;2024-02-15T07:40:44;9.10;;;4.25;;
42244;SDS011;27912;51.828;5.688;2024-02-15T07:43:10;10.73;;;5.55;;
42244;SDS011;27912;51.828;5.688;2024-02-15T07:45:36;13.68;;;5.55;;
42244;SDS011;27912;51.828;5.688;2024-02-15T07:48:02;9.88;;;5.10;;
42244;SDS011;27912;51.828;5.688;2024-02-15T07:50:29;8.30;;;4.72;;
42244;SDS011;27912;51.828;5.688;2024-02-15T07:52:55;8.88;;;4.90;;
42244;SDS011;27912;51.828;5.688;2024-02-15T07:55:21;10.85;;;5.40;;
42244;SDS011;27912;51.828;5.688;2024-02-15T07:57:47;11.70;;;5.13;;
42244;SDS011;27912;51.828;5.688;2024-02-15T08:00:13;9.07;;;5.32;;
42244;SDS011;27912;51.828;5.688;2024-02-15T08:02:41;11.05;;;5.40;;
42244;SDS011;27912;51.828;5.688;2024-02-15T08:05:09;7.75;;;4.47;;
42244;SDS011;27912;51.828;5.688;2024-02-15T08:07:42;9.48;;;5.07;;
42244;SDS011;27912;51.828;5.688;2024-02-15T08:10:15;6.78;;;4.75;;
42244;SDS011;27912;51.828;5.688;2024-02-15T08:12:41;9.52;;;5.00;;
42244;SDS011;27912;51.828;5.688;2024-02-15T08:15:08;9.30;;;4.75;;
42244;SDS011;27912;51.828;5.688;2024-02-15T08:17:40;8.65;;;4.97;;
42244;SDS011;27912;51.828;5.688;2024-02-15T08:20:10;7.72;;;4.20;;
42244;SDS011;27912;51.828;5.688;2024-02-15T08:22:37;7.07;;;3.97;;
42244;SDS011;27912;51.828;5.688;2024-02-15T08:25:09;11.00;;;3.85;;
42244;SDS011;27912;51.828;5.688;2024-02-15T08:27:40;7.75;;;4.35;;
42244;SDS011;27912;51.828;5.688;2024-02-15T08:30:09;8.50;;;4.53;;
42244;SDS011;27912;51.828;5.688;2024-02-15T08:32:36;7.70;;;3.58;;
42244;SDS011;27912;51.828;5.688;2024-02-15T08:35:02;7.03;;;3.55;;
42244;SDS011;27912;51.828;5.688;2024-02-15T08:37:29;9.90;;;3.75;;
42244;SDS011;27912;51.828;5.688;2024-02-15T08:39:57;7.95;;;3.70;;
42244;SDS011;27912;51.828;5.688;2024-02-15T08:42:22;6.30;;;2.88;;
42244;SDS011;27912;51.828;5.688;2024-02-15T08:44:49;9.90;;;3.10;;
42244;SDS011;27912;51.828;5.688;2024-02-15T08:47:15;5.55;;;3.25;;
42244;SDS011;27912;51.828;5.688;2024-02-15T08:49:40;8.05;;;2.55;;
42244;SDS011;27912;51.828;5.688;2024-02-15T08:52:06;10.57;;;2.85;;
42244;SDS011;27912;51.828;5.688;2024-02-15T08:54:33;7.13;;;2.42;;
42244;SDS011;27912;51.828;5.688;2024-02-15T08:57:01;13.18;;;3.08;;
42244;SDS011;27912;51.828;5.688;2024-02-15T08:59:26;9.50;;;2.63;;
42244;SDS011;27912;51.828;5.688;2024-02-15T09:01:54;9.13;;;2.22;;
42244;SDS011;27912;51.828;5.688;2024-02-15T09:04:21;6.10;;;2.67;;
42244;SDS011;27912;51.828;5.688;2024-02-15T09:06:49;5.65;;;2.10;;
42244;SDS011;27912;51.828;5.688;2024-02-15T09:09:19;9.68;;;2.97;;
42244;SDS011;27912;51.828;5.688;2024-02-15T09:11:44;6.05;;;2.22;;
42244;SDS011;27912;51.828;5.688;2024-02-15T09:14:10;9.35;;;1.92;;
42244;SDS011;27912;51.828;5.688;2024-02-15T09:16:36;9.70;;;3.50;;
42244;SDS011;27912;51.828;5.688;2024-02-15T09:19:01;7.38;;;1.92;;
42244;SDS011;27912;51.828;5.688;2024-02-15T09:21:27;5.28;;;2.17;;
42244;SDS011;27912;51.828;5.688;2024-02-15T09:23:55;7.45;;;2.40;;
42244;SDS011;27912;51.828;5.688;2024-02-15T09:26:21;5.60;;;2.72;;
42244;SDS011;27912;51.828;5.688;2024-02-15T09:28:47;7.07;;;1.80;;
42244;SDS011;27912;51.828;5.688;2024-02-15T09:31:12;9.18;;;2.40;;
42244;SDS011;27912;51.828;5.688;2024-02-15T09:33:39;8.35;;;2.20;;
42244;SDS011;27912;51.828;5.688;2024-02-15T09:36:04;9.23;;;2.85;;
42244;SDS011;27912;51.828;5.688;2024-02-15T09:38:30;6.47;;;2.40;;
42244;SDS011;27912;51.828;5.688;2024-02-15T09:40:56;10.93;;;2.60;;
42244;SDS011;27912;51.828;5.688;2024-02-15T09:43:22;8.25;;;2.13;;
42244;SDS011;27912;51.828;5.688;2024-02-15T09:45:51;6.30;;;2.53;;
42244;SDS011;27912;51.828;5.688;2024-02-15T09:48:19;7.00;;;3.00;;
42244;SDS011;27912;51.828;5.688;2024-02-15T09:50:49;7.88;;;2.47;;
42244;SDS011;27912;51.828;5.688;2024-02-15T09:53:21;5.32;;;2.10;;
42244;SDS011;27912;51.828;5.688;2024-02-15T09:55:53;4.63;;;2.33;;
42244;SDS011;27912;51.828;5.688;2024-02-15T09:58:20;7.30;;;2.00;;
42244;SDS011;27912;51.828;5.688;2024-02-15T10:00:49;5.80;;;2.17;;
42244;SDS011;27912;51.828;5.688;2024-02-15T10:03:16;8.65;;;2.50;;
42244;SDS011;27912;51.828;5.688;2024-02-15T10:05:46;4.50;;;2.10;;
42244;SDS011;27912;51.828;5.688;2024-02-15T10:08:14;8.98;;;2.40;;
42244;SDS011;27912;51.828;5.688;2024-02-15T10:10:39;5.45;;;1.73;;
42244;SDS011;27912;51.828;5.688;2024-02-15T10:13:06;5.60;;;2.35;;
42244;SDS011;27912;51.828;5.688;2024-02-15T10:15:42;6.47;;;2.33;;
42244;SDS011;27912;51.828;5.688;2024-02-15T10:18:08;7.38;;;2.28;;
42244;SDS011;27912;51.828;5.688;2024-02-15T10:20:37;12.00;;;2.20;;
42244;SDS011;27912;51.828;5.688;2024-02-15T10:25:34;7.18;;;2.30;;
42244;SDS011;27912;51.828;5.688;2024-02-15T10:28:10;8.85;;;2.78;;
42244;SDS011;27912;51.828;5.688;2024-02-15T10:30:40;9.63;;;2.15;;
42244;SDS011;27912;51.828;5.688;2024-02-15T10:33:26;9.10;;;1.98;;
42244;SDS011;27912;51.828;5.688;2024-02-15T10:36:04;6.78;;;2.30;;
42244;SDS011;27912;51.828;5.688;2024-02-15T10:38:32;6.93;;;1.90;;
42244;SDS011;27912;51.828;5.688;2024-02-15T10:41:02;13.63;;;2.72;;
42244;SDS011;27912;51.828;5.688;2024-02-15T10:45:55;7.88;;;1.75;;
42244;SDS011;27912;51.828;5.688;2024-02-15T10:48:22;7.28;;;1.80;;
42244;SDS011;27912;51.828;5.688;2024-02-15T10:50:47;7.43;;;1.85;;
42244;SDS011;27912;51.828;5.688;2024-02-15T10:53:21;8.07;;;2.10;;
42244;SDS011;27912;51.828;5.688;2024-02-15T10:58:45;5.80;;;1.90;;
42244;SDS011;27912;51.828;5.688;2024-02-15T11:01:16;9.25;;;2.40;;
42244;SDS011;27912;51.828;5.688;2024-02-15T11:03:51;8.50;;;2.22;;
42244;SDS011;27912;51.828;5.688;2024-02-15T11:06:24;10.65;;;2.30;;
42244;SDS011;27912;51.828;5.688;2024-02-15T11:08:55;10.45;;;2.22;;
42244;SDS011;27912;51.828;5.688;2024-02-15T11:11:21;6.65;;;2.40;;
42244;SDS011;27912;51.828;5.688;2024-02-15T11:13:47;6.97;;;2.05;;
42244;SDS011;27912;51.828;5.688;2024-02-15T11:19:57;5.57;;;2.00;;
42244;SDS011;27912;51.828;5.688;2024-02-15T11:22:11;6.05;;;2.15;;
42244;SDS011;27912;51.828;5.688;2024-02-15T11:24:46;6.53;;;1.95;;
42244;SDS011;27912;51.828;5.688;2024-02-15T11:27:29;6.28;;;2.70;;
42244;SDS011;27912;51.828;5.688;2024-02-15T11:29:57;5.90;;;2.25;;
42244;SDS011;27912;51.828;5.688;2024-02-15T11:35:18;8.38;;;2.15;;
42244;SDS011;27912;51.828;5.688;2024-02-15T11:42:48;9.65;;;2.35;;
42244;SDS011;27912;51.828;5.688;2024-02-15T11:45:15;8.77;;;1.75;;
42244;SDS011;27912;51.828;5.688;2024-02-15T11:47:49;6.35;;;2.00;;
42244;SDS011;27912;51.828;5.688;2024-02-15T11:50:17;6.65;;;1.70;;
42244;SDS011;27912;51.828;5.688;2024-02-15T11:52:44;8.80;;;1.83;;
42244;SDS011;27912;51.828;5.688;2024-02-15T11:55:11;4.35;;;2.20;;
42244;SDS011;27912;51.828;5.688;2024-02-15T11:57:41;5.78;;;1.75;;
42244;SDS011;27912;51.828;5.688;2024-02-15T12:00:21;3.85;;;1.33;;
42244;SDS011;27912;51.828;5.688;2024-02-15T12:03:08;8.15;;;2.03;;
42244;SDS011;27912;51.828;5.688;2024-02-15T12:05:53;5.53;;;1.50;;
42244;SDS011;27912;51.828;5.688;2024-02-15T12:08:38;9.93;;;1.63;;
42244;SDS011;27912;51.828;5.688;2024-02-15T12:11:23;5.40;;;1.85;;
42244;SDS011;27912;51.828;5.688;2024-02-15T12:14:11;6.20;;;1.67;;
42244;SDS011;27912;51.828;5.688;2024-02-15T12:17:06;8.35;;;2.20;;
42244;SDS011;27912;51.828;5.688;2024-02-15T12:19:52;6.82;;;1.75;;
42244;SDS011;27912;51.828;5.688;2024-02-15T12:22:21;8.70;;;1.08;;
42244;SDS011;27912;51.828;5.688;2024-02-15T12:24:54;8.25;;;1.67;;
42244;SDS011;27912;51.828;5.688;2024-02-15T12:27:20;4.47;;;1.10;;
42244;SDS011;27912;51.828;5.688;2024-02-15T12:29:56;7.10;;;1.48;;
42244;SDS011;27912;51.828;5.688;2024-02-15T12:32:26;3.38;;;1.05;;
42244;SDS011;27912;51.828;5.688;2024-02-15T12:34:53;5.22;;;1.17;;
42244;SDS011;27912;51.828;5.688;2024-02-15T12:37:35;7.55;;;1.15;;
42244;SDS011;27912;51.828;5.688;2024-02-15T12:40:16;5.20;;;1.10;;
42244;SDS011;27912;51.828;5.688;2024-02-15T12:42:43;4.53;;;1.05;;
42244;SDS011;27912;51.828;5.688;2024-02-15T12:45:19;3.92;;;1.00;;
42244;SDS011;27912;51.828;5.688;2024-02-15T12:47:55;8.77;;;1.05;;
42244;SDS011;27912;51.828;5.688;2024-02-15T12:50:28;6.43;;;1.40;;
42244;SDS011;27912;51.828;5.688;2024-02-15T12:52:55;7.72;;;1.10;;
42244;SDS011;27912;51.828;5.688;2024-02-15T12:55:27;4.07;;;1.00;;
42244;SDS011;27912;51.828;5.688;2024-02-15T12:58:03;5.45;;;1.20;;
42244;SDS011;27912;51.828;5.688;2024-02-15T13:00:33;4.53;;;1.40;;
42244;SDS011;27912;51.828;5.688;2024-02-15T13:03:01;6.80;;;1.60;;
42244;SDS011;27912;51.828;5.688;2024-02-15T13:05:29;3.05;;;1.23;;
42244;SDS011;27912;51.828;5.688;2024-02-15T13:07:56;5.13;;;1.70;;
42244;SDS011;27912;51.828;5.688;2024-02-15T13:10:27;4.75;;;1.98;;
42244;SDS011;27912;51.828;5.688;2024-02-15T13:12:54;6.03;;;1.50;;
42244;SDS011;27912;51.828;5.688;2024-02-15T13:15:20;4.40;;;1.20;;
42244;SDS011;27912;51.828;5.688;2024-02-15T13:17:51;4.47;;;1.25;;
42244;SDS011;27912;51.828;5.688;2024-02-15T13:20:18;4.95;;;1.25;;
42244;SDS011;27912;51.828;5.688;2024-02-15T13:22:52;3.65;;;1.17;;
42244;SDS011;27912;51.828;5.688;2024-02-15T13:25:18;4.53;;;1.10;;
42244;SDS011;27912;51.828;5.688;2024-02-15T13:27:46;5.53;;;1.27;;
42244;SDS011;27912;51.828;5.688;2024-02-15T13:30:12;4.60;;;1.50;;
42244;SDS011;27912;51.828;5.688;2024-02-15T13:32:38;10.45;;;1.27;;
42244;SDS011;27912;51.828;5.688;2024-02-15T13:35:06;4.68;;;1.35;;
42244;SDS011;27912;51.828;5.688;2024-02-15T13:38:00;5.68;;;1.25;;
42244;SDS011;27912;51.828;5.688;2024-02-15T13:40:26;4.50;;;1.23;;
42244;SDS011;27912;51.828;5.688;2024-02-15T13:42:59;2.60;;;0.80;;
42244;SDS011;27912;51.828;5.688;2024-02-15T13:47:56;7.68;;;1.15;;
42244;SDS011;27912;51.828;5.688;2024-02-15T13:50:22;3.13;;;0.98;;
42244;SDS011;27912;51.828;5.688;2024-02-15T13:52:48;6.35;;;1.10;;
42244;SDS011;27912;51.828;5.688;2024-02-15T13:55:17;4.18;;;1.20;;
42244;SDS011;27912;51.828;5.688;2024-02-15T13:57:44;5.78;;;1.48;;
42244;SDS011;27912;51.828;5.688;2024-02-15T14:00:14;3.88;;;1.20;;
42244;SDS011;27912;51.828;5.688;2024-02-15T14:02:53;3.42;;;1.35;;
42244;SDS011;27912;51.828;5.688;2024-02-15T14:05:21;4.05;;;1.08;;
42244;SDS011;27912;51.828;5.688;2024-02-15T14:07:55;3.80;;;1.77;;
42244;SDS011;27912;51.828;5.688;2024-02-15T14:10:21;3.95;;;1.10;;
42244;SDS011;27912;51.828;5.688;2024-02-15T14:12:48;5.10;;;1.52;;
42244;SDS011;27912;51.828;5.688;2024-02-15T14:15:17;4.53;;;1.38;;
42244;SDS011;27912;51.828;5.688;2024-02-15T14:20:12;3.22;;;1.35;;
42244;SDS011;27912;51.828;5.688;2024-02-15T14:22:43;4.93;;;1.30;;
42244;SDS011;27912;51.828;5.688;2024-02-15T14:25:20;7.30;;;1.40;;
42244;SDS011;27912;51.828;5.688;2024-02-15T14:27:46;2.63;;;1.20;;
42244;SDS011;27912;51.828;5.688;2024-02-15T14:30:13;7.57;;;2.30;;
42244;SDS011;27912;51.828;5.688;2024-02-15T14:32:57;3.63;;;1.23;;
42244;SDS011;27912;51.828;5.688;2024-02-15T14:35:28;2.80;;;1.25;;
42244;SDS011;27912;51.828;5.688;2024-02-15T14:38:04;3.60;;;1.13;;
42244;SDS011;27912;51.828;5.688;2024-02-15T14:40:44;7.22;;;1.40;;
42244;SDS011;27912;51.828;5.688;2024-02-15T14:43:12;4.43;;;0.90;;
42244;SDS011;27912;51.828;5.688;2024-02-15T14:45:40;5.22;;;1.02;;
42244;SDS011;27912;51.828;5.688;2024-02-15T14:48:06;4.70;;;0.88;;
42244;SDS011;27912;51.828;5.688;2024-02-15T14:50:36;4.53;;;0.90;;
42244;SDS011;27912;51.828;5.688;2024-02-15T14:53:02;4.35;;;1.02;;
42244;SDS011;27912;51.828;5.688;2024-02-15T14:55:28;4.20;;;0.80;;
42244;SDS011;27912;51.828;5.688;2024-02-15T14:57:56;7.80;;;1.00;;
42244;SDS011;27912;51.828;5.688;2024-02-15T15:00:22;3.08;;;0.85;;
42244;SDS011;27912;51.828;5.688;2024-02-15T15:02:49;2.38;;;0.80;;
42244;SDS011;27912;51.828;5.688;2024-02-15T15:05:15;4.43;;;0.80;;
42244;SDS011;27912;51.828;5.688;2024-02-15T15:07:59;4.53;;;1.13;;
42244;SDS011;27912;51.828;5.688;2024-02-15T15:10:44;6.10;;;1.30;;